sensor_id;sensor_type;location;lat;lon;timestamp;temperature;humidity
3348;DHT22;1687;49.540;8.574;2023-06-22T00:00:55;26.10;66.00
3348;DHT22;1687;49.540;8.574;2023-06-22T00:03:22;26.10;66.10
3348;DHT22;1687;49.540;8.574;2023-06-22T00:05:49;26.00;66.00
3348;DHT22;1687;49.540;8.574;2023-06-22T00:08:17;25.90;65.80
3348;DHT22;1687;49.540;8.574;2023-06-22T00:10:43;25.90;66.10
3348;DHT22;1687;49.540;8.574;2023-06-22T00:13:10;25.80;65.90
3348;DHT22;1687;49.540;8.574;2023-06-22T00:15:38;25.80;65.90
3348;DHT22;1687;49.540;8.574;2023-06-22T00:18:06;25.70;65.90
3348;DHT22;1687;49.540;8.574;2023-06-22T00:20:32;25.70;66.30
3348;DHT22;1687;49.540;8.574;2023-06-22T00:22:59;25.60;66.00
3348;DHT22;1687;49.540;8.574;2023-06-22T00:25:25;25.60;66.30
3348;DHT22;1687;49.540;8.574;2023-06-22T00:27:51;25.40;66.10
3348;DHT22;1687;49.540;8.574;2023-06-22T00:30:17;25.40;66.30
3348;DHT22;1687;49.540;8.574;2023-06-22T00:32:44;25.20;66.20
3348;DHT22;1687;49.540;8.574;2023-06-22T00:35:12;25.00;66.40
3348;DHT22;1687;49.540;8.574;2023-06-22T00:37:38;24.90;66.80
3348;DHT22;1687;49.540;8.574;2023-06-22T00:40:10;24.90;67.30
3348;DHT22;1687;49.540;8.574;2023-06-22T00:42:38;24.80;67.10
3348;DHT22;1687;49.540;8.574;2023-06-22T00:45:05;24.80;67.60
3348;DHT22;1687;49.540;8.574;2023-06-22T00:47:31;24.70;67.60
3348;DHT22;1687;49.540;8.574;2023-06-22T00:49:58;24.60;67.50
3348;DHT22;1687;49.540;8.574;2023-06-22T00:52:24;24.40;67.70
3348;DHT22;1687;49.540;8.574;2023-06-22T00:54:54;24.20;67.90
3348;DHT22;1687;49.540;8.574;2023-06-22T00:57:22;24.10;68.50
3348;DHT22;1687;49.540;8.574;2023-06-22T00:59:54;24.00;68.80
3348;DHT22;1687;49.540;8.574;2023-06-22T01:02:20;24.10;70.00
3348;DHT22;1687;49.540;8.574;2023-06-22T01:04:46;24.40;70.80
3348;DHT22;1687;49.540;8.574;2023-06-22T01:07:39;24.80;70.90
3348;DHT22;1687;49.540;8.574;2023-06-22T01:10:18;25.10;70.80
3348;DHT22;1687;49.540;8.574;2023-06-22T01:12:52;25.30;70.80
3348;DHT22;1687;49.540;8.574;2023-06-22T01:15:40;25.40;70.40
3348;DHT22;1687;49.540;8.574;2023-06-22T01:18:12;25.10;69.60
3348;DHT22;1687;49.540;8.574;2023-06-22T01:20:40;24.70;70.10
3348;DHT22;1687;49.540;8.574;2023-06-22T01:23:11;24.70;71.40
3348;DHT22;1687;49.540;8.574;2023-06-22T01:26:43;24.80;72.30
3348;DHT22;1687;49.540;8.574;2023-06-22T01:29:08;25.00;72.20
3348;DHT22;1687;49.540;8.574;2023-06-22T01:31:38;25.10;72.00
3348;DHT22;1687;49.540;8.574;2023-06-22T01:34:06;24.80;71.20
3348;DHT22;1687;49.540;8.574;2023-06-22T01:36:33;24.50;71.30
3348;DHT22;1687;49.540;8.574;2023-06-22T01:39:00;24.30;72.00
3348;DHT22;1687;49.540;8.574;2023-06-22T01:41:30;24.30;72.50
3348;DHT22;1687;49.540;8.574;2023-06-22T01:43:59;24.30;72.70
3348;DHT22;1687;49.540;8.574;2023-06-22T01:46:25;24.20;72.70
3348;DHT22;1687;49.540;8.574;2023-06-22T01:48:51;24.20;73.00
3348;DHT22;1687;49.540;8.574;2023-06-22T01:51:17;24.10;73.10
3348;DHT22;1687;49.540;8.574;2023-06-22T01:53:43;24.00;73.30
3348;DHT22;1687;49.540;8.574;2023-06-22T01:56:09;24.10;74.10
3348;DHT22;1687;49.540;8.574;2023-06-22T01:58:38;24.10;74.00
3348;DHT22;1687;49.540;8.574;2023-06-22T02:01:13;24.10;74.10
3348;DHT22;1687;49.540;8.574;2023-06-22T02:03:48;24.10;74.30
3348;DHT22;1687;49.540;8.574;2023-06-22T02:06:24;24.10;74.50
3348;DHT22;1687;49.540;8.574;2023-06-22T02:09:02;24.00;74.60
3348;DHT22;1687;49.540;8.574;2023-06-22T02:11:43;24.00;74.70
3348;DHT22;1687;49.540;8.574;2023-06-22T02:14:10;24.00;74.80
3348;DHT22;1687;49.540;8.574;2023-06-22T02:16:37;23.80;75.00
3348;DHT22;1687;49.540;8.574;2023-06-22T02:19:03;23.80;75.40
3348;DHT22;1687;49.540;8.574;2023-06-22T02:21:30;23.90;75.70
3348;DHT22;1687;49.540;8.574;2023-06-22T02:23:56;23.90;75.60
3348;DHT22;1687;49.540;8.574;2023-06-22T02:26:22;23.90;75.50
3348;DHT22;1687;49.540;8.574;2023-06-22T02:28:49;23.80;76.10
3348;DHT22;1687;49.540;8.574;2023-06-22T02:31:14;23.80;76.40
3348;DHT22;1687;49.540;8.574;2023-06-22T02:33:41;23.80;76.50
3348;DHT22;1687;49.540;8.574;2023-06-22T02:36:07;23.70;76.20
3348;DHT22;1687;49.540;8.574;2023-06-22T02:38:35;23.50;76.30
3348;DHT22;1687;49.540;8.574;2023-06-22T02:41:01;23.50;77.00
3348;DHT22;1687;49.540;8.574;2023-06-22T02:43:27;23.40;77.80
3348;DHT22;1687;49.540;8.574;2023-06-22T02:45:53;23.50;77.40
3348;DHT22;1687;49.540;8.574;2023-06-22T02:48:19;23.50;77.60
3348;DHT22;1687;49.540;8.574;2023-06-22T02:50:45;23.40;77.50
3348;DHT22;1687;49.540;8.574;2023-06-22T02:53:10;23.30;77.60
3348;DHT22;1687;49.540;8.574;2023-06-22T02:55:36;23.20;77.90
3348;DHT22;1687;49.540;8.574;2023-06-22T02:58:02;23.20;78.50
3348;DHT22;1687;49.540;8.574;2023-06-22T03:00:30;23.50;80.20
3348;DHT22;1687;49.540;8.574;2023-06-22T03:02:57;23.70;79.60
3348;DHT22;1687;49.540;8.574;2023-06-22T03:05:23;24.00;79.40
3348;DHT22;1687;49.540;8.574;2023-06-22T03:07:49;23.90;78.80
3348;DHT22;1687;49.540;8.574;2023-06-22T03:10:15;23.70;79.00
3348;DHT22;1687;49.540;8.574;2023-06-22T03:12:42;23.60;79.00
3348;DHT22;1687;49.540;8.574;2023-06-22T03:15:11;23.50;79.30
3348;DHT22;1687;49.540;8.574;2023-06-22T03:17:39;23.30;79.00
3348;DHT22;1687;49.540;8.574;2023-06-22T03:20:05;23.10;78.90
3348;DHT22;1687;49.540;8.574;2023-06-22T03:22:39;23.00;80.30
3348;DHT22;1687;49.540;8.574;2023-06-22T03:25:06;22.90;79.90
3348;DHT22;1687;49.540;8.574;2023-06-22T03:27:36;22.90;80.50
3348;DHT22;1687;49.540;8.574;2023-06-22T03:30:02;23.00;80.70
3348;DHT22;1687;49.540;8.574;2023-06-22T03:32:28;23.10;80.90
3348;DHT22;1687;49.540;8.574;2023-06-22T03:34:54;23.20;81.90
3348;DHT22;1687;49.540;8.574;2023-06-22T03:37:27;23.20;80.90
3348;DHT22;1687;49.540;8.574;2023-06-22T03:39:53;23.20;81.30
3348;DHT22;1687;49.540;8.574;2023-06-22T03:42:18;23.10;81.10
3348;DHT22;1687;49.540;8.574;2023-06-22T03:44:44;23.00;81.40
3348;DHT22;1687;49.540;8.574;2023-06-22T03:47:10;23.00;81.90
3348;DHT22;1687;49.540;8.574;2023-06-22T03:49:36;23.00;82.20
3348;DHT22;1687;49.540;8.574;2023-06-22T03:52:02;23.00;82.30
3348;DHT22;1687;49.540;8.574;2023-06-22T03:54:29;23.10;82.70
3348;DHT22;1687;49.540;8.574;2023-06-22T03:56:55;23.20;83.10
3348;DHT22;1687;49.540;8.574;2023-06-22T03:59:22;23.20;83.30
3348;DHT22;1687;49.540;8.574;2023-06-22T04:01:48;23.30;83.50
3348;DHT22;1687;49.540;8.574;2023-06-22T04:04:14;23.30;83.50
3348;DHT22;1687;49.540;8.574;2023-06-22T04:06:39;23.30;83.80
3348;DHT22;1687;49.540;8.574;2023-06-22T04:09:08;23.30;83.70
3348;DHT22;1687;49.540;8.574;2023-06-22T04:11:34;23.30;84.10
3348;DHT22;1687;49.540;8.574;2023-06-22T04:13:59;23.30;84.20
3348;DHT22;1687;49.540;8.574;2023-06-22T04:16:25;23.40;84.60
3348;DHT22;1687;49.540;8.574;2023-06-22T04:18:51;23.40;84.40
3348;DHT22;1687;49.540;8.574;2023-06-22T04:21:17;23.40;84.80
3348;DHT22;1687;49.540;8.574;2023-06-22T04:23:42;23.30;84.60
3348;DHT22;1687;49.540;8.574;2023-06-22T04:26:08;23.30;85.00
3348;DHT22;1687;49.540;8.574;2023-06-22T04:28:34;23.20;85.20
3348;DHT22;1687;49.540;8.574;2023-06-22T04:31:04;23.20;85.50
3348;DHT22;1687;49.540;8.574;2023-06-22T04:33:30;23.20;85.80
3348;DHT22;1687;49.540;8.574;2023-06-22T04:35:56;23.20;85.90
3348;DHT22;1687;49.540;8.574;2023-06-22T04:38:26;23.30;86.20
3348;DHT22;1687;49.540;8.574;2023-06-22T04:40:52;23.30;86.20
3348;DHT22;1687;49.540;8.574;2023-06-22T04:43:19;23.40;86.70
3348;DHT22;1687;49.540;8.574;2023-06-22T04:45:45;23.50;87.00
3348;DHT22;1687;49.540;8.574;2023-06-22T04:48:11;23.50;87.20
3348;DHT22;1687;49.540;8.574;2023-06-22T04:50:42;23.50;87.20
3348;DHT22;1687;49.540;8.574;2023-06-22T04:53:09;23.50;87.40
3348;DHT22;1687;49.540;8.574;2023-06-22T04:55:38;23.60;87.70
3348;DHT22;1687;49.540;8.574;2023-06-22T04:58:07;23.60;88.10
3348;DHT22;1687;49.540;8.574;2023-06-22T05:00:33;23.80;88.30
3348;DHT22;1687;49.540;8.574;2023-06-22T05:03:01;23.80;88.20
3348;DHT22;1687;49.540;8.574;2023-06-22T05:05:29;23.80;88.50
3348;DHT22;1687;49.540;8.574;2023-06-22T05:07:56;24.00;88.90
3348;DHT22;1687;49.540;8.574;2023-06-22T05:10:25;24.10;88.90
3348;DHT22;1687;49.540;8.574;2023-06-22T05:12:51;24.10;88.90
3348;DHT22;1687;49.540;8.574;2023-06-22T05:15:17;24.20;88.80
3348;DHT22;1687;49.540;8.574;2023-06-22T05:17:44;24.30;89.20
3348;DHT22;1687;49.540;8.574;2023-06-22T05:20:11;24.10;87.80
3348;DHT22;1687;49.540;8.574;2023-06-22T05:22:38;23.90;88.00
3348;DHT22;1687;49.540;8.574;2023-06-22T05:25:07;23.80;88.70
3348;DHT22;1687;49.540;8.574;2023-06-22T05:27:34;23.80;89.40
3348;DHT22;1687;49.540;8.574;2023-06-22T05:30:05;23.80;89.50
3348;DHT22;1687;49.540;8.574;2023-06-22T05:32:32;23.80;89.80
3348;DHT22;1687;49.540;8.574;2023-06-22T05:34:58;23.90;90.00
3348;DHT22;1687;49.540;8.574;2023-06-22T05:37:24;23.90;90.10
3348;DHT22;1687;49.540;8.574;2023-06-22T05:39:51;24.00;90.10
3348;DHT22;1687;49.540;8.574;2023-06-22T05:42:17;24.10;90.30
3348;DHT22;1687;49.540;8.574;2023-06-22T05:44:42;24.20;90.50
3348;DHT22;1687;49.540;8.574;2023-06-22T05:47:08;24.30;90.60
3348;DHT22;1687;49.540;8.574;2023-06-22T05:49:34;24.50;90.70
3348;DHT22;1687;49.540;8.574;2023-06-22T05:51:59;24.60;90.30
3348;DHT22;1687;49.540;8.574;2023-06-22T05:54:27;24.60;90.60
3348;DHT22;1687;49.540;8.574;2023-06-22T05:56:53;24.80;90.40
3348;DHT22;1687;49.540;8.574;2023-06-22T05:59:19;24.80;90.30
3348;DHT22;1687;49.540;8.574;2023-06-22T06:01:45;24.90;90.20
3348;DHT22;1687;49.540;8.574;2023-06-22T06:04:16;25.00;90.00
3348;DHT22;1687;49.540;8.574;2023-06-22T06:06:42;25.00;90.00
3348;DHT22;1687;49.540;8.574;2023-06-22T06:09:08;25.20;89.60
3348;DHT22;1687;49.540;8.574;2023-06-22T06:11:33;25.30;89.80
3348;DHT22;1687;49.540;8.574;2023-06-22T06:13:59;25.40;89.00
3348;DHT22;1687;49.540;8.574;2023-06-22T06:16:25;25.50;89.10
3348;DHT22;1687;49.540;8.574;2023-06-22T06:18:51;25.70;89.00
3348;DHT22;1687;49.540;8.574;2023-06-22T06:21:18;25.80;88.70
3348;DHT22;1687;49.540;8.574;2023-06-22T06:23:44;25.80;87.50
3348;DHT22;1687;49.540;8.574;2023-06-22T06:26:10;25.80;87.60
3348;DHT22;1687;49.540;8.574;2023-06-22T06:28:35;25.80;87.40
3348;DHT22;1687;49.540;8.574;2023-06-22T06:31:01;25.90;87.00
3348;DHT22;1687;49.540;8.574;2023-06-22T06:33:27;25.90;86.70
3348;DHT22;1687;49.540;8.574;2023-06-22T06:35:52;26.00;86.40
3348;DHT22;1687;49.540;8.574;2023-06-22T06:38:18;26.10;86.80
3348;DHT22;1687;49.540;8.574;2023-06-22T06:40:44;26.40;86.50
3348;DHT22;1687;49.540;8.574;2023-06-22T06:43:10;26.60;86.00
3348;DHT22;1687;49.540;8.574;2023-06-22T06:45:36;26.80;85.80
3348;DHT22;1687;49.540;8.574;2023-06-22T06:48:02;27.10;85.40
3348;DHT22;1687;49.540;8.574;2023-06-22T06:50:28;27.20;84.60
3348;DHT22;1687;49.540;8.574;2023-06-22T06:52:53;27.30;84.30
3348;DHT22;1687;49.540;8.574;2023-06-22T06:55:20;27.40;83.80
3348;DHT22;1687;49.540;8.574;2023-06-22T06:57:45;27.30;82.50
3348;DHT22;1687;49.540;8.574;2023-06-22T07:00:14;27.20;81.90
3348;DHT22;1687;49.540;8.574;2023-06-22T07:02:42;27.20;82.20
3348;DHT22;1687;49.540;8.574;2023-06-22T07:05:09;27.30;82.10
3348;DHT22;1687;49.540;8.574;2023-06-22T07:07:35;27.40;81.20
3348;DHT22;1687;49.540;8.574;2023-06-22T07:10:01;27.50;81.50
3348;DHT22;1687;49.540;8.574;2023-06-22T07:12:28;27.70;80.60
3348;DHT22;1687;49.540;8.574;2023-06-22T07:14:56;27.90;80.10
3348;DHT22;1687;49.540;8.574;2023-06-22T07:17:27;27.90;79.50
3348;DHT22;1687;49.540;8.574;2023-06-22T07:19:52;28.00;79.20
3348;DHT22;1687;49.540;8.574;2023-06-22T07:22:18;28.00;78.70
3348;DHT22;1687;49.540;8.574;2023-06-22T07:24:44;28.10;78.50
3348;DHT22;1687;49.540;8.574;2023-06-22T07:27:09;28.10;78.00
3348;DHT22;1687;49.540;8.574;2023-06-22T07:29:37;28.20;77.70
3348;DHT22;1687;49.540;8.574;2023-06-22T07:32:06;28.30;77.30
3348;DHT22;1687;49.540;8.574;2023-06-22T07:34:31;28.40;77.40
3348;DHT22;1687;49.540;8.574;2023-06-22T07:36:59;28.50;76.70
3348;DHT22;1687;49.540;8.574;2023-06-22T07:39:24;28.60;76.00
3348;DHT22;1687;49.540;8.574;2023-06-22T07:41:52;28.50;75.50
3348;DHT22;1687;49.540;8.574;2023-06-22T07:44:18;28.60;75.70
3348;DHT22;1687;49.540;8.574;2023-06-22T07:46:43;28.70;74.60
3348;DHT22;1687;49.540;8.574;2023-06-22T07:49:09;28.60;74.60
3348;DHT22;1687;49.540;8.574;2023-06-22T07:51:35;28.70;74.20
3348;DHT22;1687;49.540;8.574;2023-06-22T07:54:01;28.60;73.60
3348;DHT22;1687;49.540;8.574;2023-06-22T07:56:26;28.60;73.60
3348;DHT22;1687;49.540;8.574;2023-06-22T07:58:52;28.80;73.80
3348;DHT22;1687;49.540;8.574;2023-06-22T08:01:18;28.80;72.90
3348;DHT22;1687;49.540;8.574;2023-06-22T08:03:48;28.90;72.80
3348;DHT22;1687;49.540;8.574;2023-06-22T08:06:14;29.00;72.90
3348;DHT22;1687;49.540;8.574;2023-06-22T08:08:40;29.10;72.60
3348;DHT22;1687;49.540;8.574;2023-06-22T08:11:05;29.30;72.00
3348;DHT22;1687;49.540;8.574;2023-06-22T08:13:31;29.40;71.90
3348;DHT22;1687;49.540;8.574;2023-06-22T08:15:57;29.40;71.30
3348;DHT22;1687;49.540;8.574;2023-06-22T08:18:23;29.50;71.30
3348;DHT22;1687;49.540;8.574;2023-06-22T08:20:48;29.60;71.20
3348;DHT22;1687;49.540;8.574;2023-06-22T08:23:15;29.70;70.40
3348;DHT22;1687;49.540;8.574;2023-06-22T08:25:41;29.70;70.30
3348;DHT22;1687;49.540;8.574;2023-06-22T08:28:06;29.80;69.80
3348;DHT22;1687;49.540;8.574;2023-06-22T08:30:32;29.90;69.70
3348;DHT22;1687;49.540;8.574;2023-06-22T08:32:58;30.10;69.60
3348;DHT22;1687;49.540;8.574;2023-06-22T08:35:24;30.20;69.00
3348;DHT22;1687;49.540;8.574;2023-06-22T08:37:50;30.30;69.00
3348;DHT22;1687;49.540;8.574;2023-06-22T08:40:18;30.40;68.70
3348;DHT22;1687;49.540;8.574;2023-06-22T08:42:45;30.40;67.90
3348;DHT22;1687;49.540;8.574;2023-06-22T08:45:12;30.40;67.80
3348;DHT22;1687;49.540;8.574;2023-06-22T08:47:38;30.50;67.50
3348;DHT22;1687;49.540;8.574;2023-06-22T08:50:05;30.60;67.50
3348;DHT22;1687;49.540;8.574;2023-06-22T08:52:33;30.80;67.10
3348;DHT22;1687;49.540;8.574;2023-06-22T08:54:58;30.90;66.90
3348;DHT22;1687;49.540;8.574;2023-06-22T08:57:24;31.00;66.60
3348;DHT22;1687;49.540;8.574;2023-06-22T08:59:50;31.20;66.40
3348;DHT22;1687;49.540;8.574;2023-06-22T09:02:18;31.40;65.80
3348;DHT22;1687;49.540;8.574;2023-06-22T09:04:45;31.40;65.40
3348;DHT22;1687;49.540;8.574;2023-06-22T09:07:11;31.50;65.10
3348;DHT22;1687;49.540;8.574;2023-06-22T09:09:37;31.60;64.80
3348;DHT22;1687;49.540;8.574;2023-06-22T09:12:03;31.80;64.60
3348;DHT22;1687;49.540;8.574;2023-06-22T09:14:29;31.80;64.20
3348;DHT22;1687;49.540;8.574;2023-06-22T09:16:54;31.90;63.80
3348;DHT22;1687;49.540;8.574;2023-06-22T09:19:20;32.00;64.00
3348;DHT22;1687;49.540;8.574;2023-06-22T09:21:46;31.90;62.80
3348;DHT22;1687;49.540;8.574;2023-06-22T09:24:11;31.90;62.70
3348;DHT22;1687;49.540;8.574;2023-06-22T09:26:37;31.90;62.30
3348;DHT22;1687;49.540;8.574;2023-06-22T09:29:05;32.00;62.60
3348;DHT22;1687;49.540;8.574;2023-06-22T09:31:31;32.10;62.40
3348;DHT22;1687;49.540;8.574;2023-06-22T09:33:57;32.10;61.90
3348;DHT22;1687;49.540;8.574;2023-06-22T09:36:23;32.10;61.40
3348;DHT22;1687;49.540;8.574;2023-06-22T09:38:49;32.10;61.20
3348;DHT22;1687;49.540;8.574;2023-06-22T09:41:20;31.90;61.00
3348;DHT22;1687;49.540;8.574;2023-06-22T09:43:46;31.90;60.80
3348;DHT22;1687;49.540;8.574;2023-06-22T09:46:17;31.80;60.60
3348;DHT22;1687;49.540;8.574;2023-06-22T09:48:43;31.80;61.00
3348;DHT22;1687;49.540;8.574;2023-06-22T09:51:08;31.90;60.60
3348;DHT22;1687;49.540;8.574;2023-06-22T09:53:34;32.00;60.50
3348;DHT22;1687;49.540;8.574;2023-06-22T09:56:01;32.10;60.20
3348;DHT22;1687;49.540;8.574;2023-06-22T09:58:27;32.20;60.10
3348;DHT22;1687;49.540;8.574;2023-06-22T10:00:53;32.30;59.80
3348;DHT22;1687;49.540;8.574;2023-06-22T10:03:20;32.30;59.70
3348;DHT22;1687;49.540;8.574;2023-06-22T10:05:46;32.30;59.40
3348;DHT22;1687;49.540;8.574;2023-06-22T10:08:11;32.30;59.30
3348;DHT22;1687;49.540;8.574;2023-06-22T10:10:37;32.30;59.10
3348;DHT22;1687;49.540;8.574;2023-06-22T10:13:09;32.30;58.90
3348;DHT22;1687;49.540;8.574;2023-06-22T10:15:38;32.40;58.90
3348;DHT22;1687;49.540;8.574;2023-06-22T10:18:04;32.50;58.90
3348;DHT22;1687;49.540;8.574;2023-06-22T10:20:30;32.60;58.70
3348;DHT22;1687;49.540;8.574;2023-06-22T10:22:56;32.70;58.40
3348;DHT22;1687;49.540;8.574;2023-06-22T10:25:21;32.70;58.40
3348;DHT22;1687;49.540;8.574;2023-06-22T10:27:47;32.80;58.30
3348;DHT22;1687;49.540;8.574;2023-06-22T10:30:14;32.80;58.00
3348;DHT22;1687;49.540;8.574;2023-06-22T10:32:40;32.70;57.80
3348;DHT22;1687;49.540;8.574;2023-06-22T10:35:08;32.70;58.00
3348;DHT22;1687;49.540;8.574;2023-06-22T10:37:33;32.80;57.90
3348;DHT22;1687;49.540;8.574;2023-06-22T10:39:59;32.90;57.80
3348;DHT22;1687;49.540;8.574;2023-06-22T10:42:25;33.10;57.80
3348;DHT22;1687;49.540;8.574;2023-06-22T10:44:51;33.00;57.50
3348;DHT22;1687;49.540;8.574;2023-06-22T10:47:16;33.10;57.50
3348;DHT22;1687;49.540;8.574;2023-06-22T10:49:42;33.10;57.30
3348;DHT22;1687;49.540;8.574;2023-06-22T10:52:08;33.10;57.30
3348;DHT22;1687;49.540;8.574;2023-06-22T10:54:35;33.10;57.20
3348;DHT22;1687;49.540;8.574;2023-06-22T10:57:01;33.20;57.20
3348;DHT22;1687;49.540;8.574;2023-06-22T10:59:28;33.20;56.90
3348;DHT22;1687;49.540;8.574;2023-06-22T11:01:55;33.10;56.70
3348;DHT22;1687;49.540;8.574;2023-06-22T11:04:22;33.10;56.70
3348;DHT22;1687;49.540;8.574;2023-06-22T11:06:48;33.10;56.60
3348;DHT22;1687;49.540;8.574;2023-06-22T11:09:14;33.20;56.80
3348;DHT22;1687;49.540;8.574;2023-06-22T11:11:51;33.40;56.70
3348;DHT22;1687;49.540;8.574;2023-06-22T11:14:19;33.50;56.60
3348;DHT22;1687;49.540;8.574;2023-06-22T11:16:45;33.70;56.50
3348;DHT22;1687;49.540;8.574;2023-06-22T11:19:12;33.80;56.50
3348;DHT22;1687;49.540;8.574;2023-06-22T11:21:38;33.90;56.40
3348;DHT22;1687;49.540;8.574;2023-06-22T11:24:04;34.00;56.20
3348;DHT22;1687;49.540;8.574;2023-06-22T11:26:30;34.10;56.20
3348;DHT22;1687;49.540;8.574;2023-06-22T11:28:57;34.30;56.10
3348;DHT22;1687;49.540;8.574;2023-06-22T11:31:23;34.30;55.90
3348;DHT22;1687;49.540;8.574;2023-06-22T11:33:49;34.30;55.70
3348;DHT22;1687;49.540;8.574;2023-06-22T11:36:15;34.30;55.50
3348;DHT22;1687;49.540;8.574;2023-06-22T11:38:41;34.30;55.50
3348;DHT22;1687;49.540;8.574;2023-06-22T11:41:08;34.30;55.30
3348;DHT22;1687;49.540;8.574;2023-06-22T11:43:34;34.40;55.20
3348;DHT22;1687;49.540;8.574;2023-06-22T11:46:03;34.40;54.90
3348;DHT22;1687;49.540;8.574;2023-06-22T11:48:29;34.50;54.90
3348;DHT22;1687;49.540;8.574;2023-06-22T11:50:56;34.50;54.70
3348;DHT22;1687;49.540;8.574;2023-06-22T11:53:23;34.50;54.50
3348;DHT22;1687;49.540;8.574;2023-06-22T11:55:50;34.50;54.60
3348;DHT22;1687;49.540;8.574;2023-06-22T11:58:16;34.40;54.20
3348;DHT22;1687;49.540;8.574;2023-06-22T12:00:41;34.30;54.20
3348;DHT22;1687;49.540;8.574;2023-06-22T12:03:08;34.30;54.30
3348;DHT22;1687;49.540;8.574;2023-06-22T12:05:34;34.20;54.30
3348;DHT22;1687;49.540;8.574;2023-06-22T12:08:00;34.30;54.20
3348;DHT22;1687;49.540;8.574;2023-06-22T12:10:26;34.40;54.30
3348;DHT22;1687;49.540;8.574;2023-06-22T12:12:54;34.50;54.10
3348;DHT22;1687;49.540;8.574;2023-06-22T12:15:20;34.60;54.10
3348;DHT22;1687;49.540;8.574;2023-06-22T12:17:45;34.60;54.10
3348;DHT22;1687;49.540;8.574;2023-06-22T12:20:13;34.70;53.80
3348;DHT22;1687;49.540;8.574;2023-06-22T12:22:39;34.60;53.60
3348;DHT22;1687;49.540;8.574;2023-06-22T12:25:05;34.60;53.70
3348;DHT22;1687;49.540;8.574;2023-06-22T12:27:32;34.60;53.60
3348;DHT22;1687;49.540;8.574;2023-06-22T12:29:57;34.70;53.30
3348;DHT22;1687;49.540;8.574;2023-06-22T12:32:23;34.60;53.20
3348;DHT22;1687;49.540;8.574;2023-06-22T12:34:49;34.70;53.30
3348;DHT22;1687;49.540;8.574;2023-06-22T12:37:15;34.70;53.20
3348;DHT22;1687;49.540;8.574;2023-06-22T12:39:41;34.70;53.00
3348;DHT22;1687;49.540;8.574;2023-06-22T12:42:07;34.70;53.10
3348;DHT22;1687;49.540;8.574;2023-06-22T12:44:39;34.70;53.10
3348;DHT22;1687;49.540;8.574;2023-06-22T12:47:06;34.70;52.90
3348;DHT22;1687;49.540;8.574;2023-06-22T12:49:32;34.60;52.60
3348;DHT22;1687;49.540;8.574;2023-06-22T12:51:58;34.50;52.50
3348;DHT22;1687;49.540;8.574;2023-06-22T12:54:23;34.60;52.70
3348;DHT22;1687;49.540;8.574;2023-06-22T12:56:52;34.80;52.70
3348;DHT22;1687;49.540;8.574;2023-06-22T12:59:18;35.00;52.40
3348;DHT22;1687;49.540;8.574;2023-06-22T13:01:43;35.10;52.30
3348;DHT22;1687;49.540;8.574;2023-06-22T13:04:11;35.20;52.10
3348;DHT22;1687;49.540;8.574;2023-06-22T13:06:40;35.40;52.20
3348;DHT22;1687;49.540;8.574;2023-06-22T13:09:06;35.40;51.70
3348;DHT22;1687;49.540;8.574;2023-06-22T13:11:32;35.40;51.60
3348;DHT22;1687;49.540;8.574;2023-06-22T13:13:58;35.40;51.40
3348;DHT22;1687;49.540;8.574;2023-06-22T13:16:24;35.50;51.30
3348;DHT22;1687;49.540;8.574;2023-06-22T13:18:49;35.70;51.30
3348;DHT22;1687;49.540;8.574;2023-06-22T13:21:15;36.00;51.40
3348;DHT22;1687;49.540;8.574;2023-06-22T13:23:41;36.20;51.00
3348;DHT22;1687;49.540;8.574;2023-06-22T13:26:07;36.30;50.80
3348;DHT22;1687;49.540;8.574;2023-06-22T13:28:33;36.50;50.70
3348;DHT22;1687;49.540;8.574;2023-06-22T13:30:58;36.80;51.00
3348;DHT22;1687;49.540;8.574;2023-06-22T13:33:24;37.30;50.50
3348;DHT22;1687;49.540;8.574;2023-06-22T13:35:50;37.90;50.70
3348;DHT22;1687;49.540;8.574;2023-06-22T13:38:15;38.50;50.30
3348;DHT22;1687;49.540;8.574;2023-06-22T13:40:42;39.50;50.20
3348;DHT22;1687;49.540;8.574;2023-06-22T13:43:08;40.50;49.50
3348;DHT22;1687;49.540;8.574;2023-06-22T13:45:34;41.10;48.50
3348;DHT22;1687;49.540;8.574;2023-06-22T13:48:00;41.60;48.40
3348;DHT22;1687;49.540;8.574;2023-06-22T13:50:26;42.50;48.20
3348;DHT22;1687;49.540;8.574;2023-06-22T13:52:52;43.10;47.50
3348;DHT22;1687;49.540;8.574;2023-06-22T13:55:17;43.40;46.30
3348;DHT22;1687;49.540;8.574;2023-06-22T13:57:46;43.60;45.90
3348;DHT22;1687;49.540;8.574;2023-06-22T14:00:12;43.10;44.90
3348;DHT22;1687;49.540;8.574;2023-06-22T14:02:38;42.80;44.40
3348;DHT22;1687;49.540;8.574;2023-06-22T14:05:05;42.70;44.80
3348;DHT22;1687;49.540;8.574;2023-06-22T14:07:31;42.10;44.10
3348;DHT22;1687;49.540;8.574;2023-06-22T14:09:57;41.10;44.20
3348;DHT22;1687;49.540;8.574;2023-06-22T14:12:23;39.90;44.30
3348;DHT22;1687;49.540;8.574;2023-06-22T14:14:49;38.90;44.70
3348;DHT22;1687;49.540;8.574;2023-06-22T14:17:15;38.10;45.20
3348;DHT22;1687;49.540;8.574;2023-06-22T14:19:41;37.60;45.40
3348;DHT22;1687;49.540;8.574;2023-06-22T14:22:06;37.00;45.70
3348;DHT22;1687;49.540;8.574;2023-06-22T14:24:32;36.40;46.00
3348;DHT22;1687;49.540;8.574;2023-06-22T14:26:58;36.00;46.40
3348;DHT22;1687;49.540;8.574;2023-06-22T14:29:25;35.50;46.50
3348;DHT22;1687;49.540;8.574;2023-06-22T14:31:51;35.10;46.90
3348;DHT22;1687;49.540;8.574;2023-06-22T14:34:16;34.90;47.50
3348;DHT22;1687;49.540;8.574;2023-06-22T14:36:42;34.60;47.50
3348;DHT22;1687;49.540;8.574;2023-06-22T14:39:09;34.40;48.30
3348;DHT22;1687;49.540;8.574;2023-06-22T14:41:35;34.30;48.30
3348;DHT22;1687;49.540;8.574;2023-06-22T14:44:00;34.30;48.60
3348;DHT22;1687;49.540;8.574;2023-06-22T14:46:27;34.40;48.60
3348;DHT22;1687;49.540;8.574;2023-06-22T14:48:53;34.30;48.70
3348;DHT22;1687;49.540;8.574;2023-06-22T14:51:18;34.30;49.20
3348;DHT22;1687;49.540;8.574;2023-06-22T14:53:45;34.40;49.20
3348;DHT22;1687;49.540;8.574;2023-06-22T14:56:11;34.40;49.40
3348;DHT22;1687;49.540;8.574;2023-06-22T14:58:40;34.40;49.10
3348;DHT22;1687;49.540;8.574;2023-06-22T15:01:06;34.20;49.30
3348;DHT22;1687;49.540;8.574;2023-06-22T15:03:34;33.90;49.50
3348;DHT22;1687;49.540;8.574;2023-06-22T15:06:02;33.80;49.70
3348;DHT22;1687;49.540;8.574;2023-06-22T15:08:28;33.80;50.00
3348;DHT22;1687;49.540;8.574;2023-06-22T15:10:54;33.70;50.20
3348;DHT22;1687;49.540;8.574;2023-06-22T15:13:21;33.80;50.30
3348;DHT22;1687;49.540;8.574;2023-06-22T15:15:48;33.70;50.50
3348;DHT22;1687;49.540;8.574;2023-06-22T15:18:15;33.80;50.70
3348;DHT22;1687;49.540;8.574;2023-06-22T15:20:41;34.30;51.10
3348;DHT22;1687;49.540;8.574;2023-06-22T15:23:10;35.10;51.10
3348;DHT22;1687;49.540;8.574;2023-06-22T15:25:35;35.60;50.80
3348;DHT22;1687;49.540;8.574;2023-06-22T15:28:01;36.10;50.70
3348;DHT22;1687;49.540;8.574;2023-06-22T15:30:28;36.90;50.40
3348;DHT22;1687;49.540;8.574;2023-06-22T15:32:54;37.70;50.40
3348;DHT22;1687;49.540;8.574;2023-06-22T15:35:20;37.80;49.30
3348;DHT22;1687;49.540;8.574;2023-06-22T15:37:46;37.40;48.80
3348;DHT22;1687;49.540;8.574;2023-06-22T15:40:12;36.70;48.70
3348;DHT22;1687;49.540;8.574;2023-06-22T15:42:38;36.00;48.70
3348;DHT22;1687;49.540;8.574;2023-06-22T15:45:05;35.30;48.70
3348;DHT22;1687;49.540;8.574;2023-06-22T15:47:31;34.80;49.20
3348;DHT22;1687;49.540;8.574;2023-06-22T15:49:57;34.40;49.40
3348;DHT22;1687;49.540;8.574;2023-06-22T15:52:23;33.90;49.50
3348;DHT22;1687;49.540;8.574;2023-06-22T15:54:49;33.60;49.80
3348;DHT22;1687;49.540;8.574;2023-06-22T15:57:19;33.50;50.40
3348;DHT22;1687;49.540;8.574;2023-06-22T15:59:45;33.50;50.50